• Join FlightAware (Why Join?)
  • Login
  • US Flag 
01:06AM EDT


 

Airport Tracker/Info


-or-


 

Live Flight TrackerFlight Track Log ✈ N9038N ✈ 28-Jun-2013 ✈ KAVL - KLFT

Flight Track Log - Related Links

Times and Time Zones

All times are in EDT time to prevent confusion due to time zone crossing. See the N9038N flight status page for this flight to view local times or setup timezone preferences in your user account.

Time Position Orientation Groundspeed Altitude Reporting Facility
EDT Latitude Longitude Course Direction KTS MPH feet Rate Location/Type
10:33AM 35.4306 -82.6317 238° Southwest 163 188 5,400  Level Atlanta Center
10:34AM 35.3168 -82.7665 239° Southwest  Level FlightAware Approximate
10:34AM 35.3969 -82.6119 154° Southeast 153 176 6,200  Level Atlanta Center
10:35AM 35.2973 -82.8055 239° Southwest  Level FlightAware Approximate
10:35AM 35.3742 -82.6175 191° South 118 136 6,800  Level Atlanta Center
10:36AM 35.2778 -82.8445 238° Southwest  Level FlightAware Approximate
10:36AM 35.3578 -82.6381 226° Southwest 86 99 7,300  Level Atlanta Center
10:37AM 35.3414 -82.6742 241° Southwest 97 112 7,900 480 Climbing Atlanta Center
10:38AM 35.3250 -82.7075 239° Southwest 109 125 8,300 420 Climbing Atlanta Center
10:39AM 35.3128 -82.7331 240° Southwest 109 125 8,800 600 Climbing Atlanta Center
10:40AM 35.2964 -82.7589 232° Southwest 109 125 9,600 660 Climbing Atlanta Center
10:41AM 35.2842 -82.7894 244° Southwest 110 127 10,200 540 Climbing Atlanta Center
10:42AM 35.2678 -82.8203 237° Southwest 110 127 10,700 480 Climbing Atlanta Center
10:43AM 35.2556 -82.8458 240° Southwest 105 121 11,200 360 Climbing Atlanta Center
10:44AM 35.2414 -82.8792 243° Southwest 105 121 11,500 300 Climbing Atlanta Center
10:45AM 35.2289 -82.9072 241° Southwest 99 114 11,800 120 Climbing Atlanta Center
10:46AM 35.2125 -82.9406 239° Southwest 106 122 11,800  Level Atlanta Center
10:47AM 35.1964 -82.9814 244° Southwest 124 143 11,900  Climbing Atlanta Center
10:48AM 35.1736 -83.0197 234° Southwest 133 153 11,900  Level Atlanta Center
10:49AM 35.1511 -83.0683 240° Southwest 149 171 11,900  Level Atlanta Center
10:50AM 35.1306 -83.1067 237° Southwest 155 178 11,900  Level Atlanta Center
10:51AM 35.1081 -83.1553 241° Southwest 150 173 11,900  Level Atlanta Center
10:52AM 35.0875 -83.2036 243° Southwest 150 173 11,900  Level Atlanta Center
10:53AM 35.0667 -83.2394 235° Southwest 150 173 11,900  Level Atlanta Center
10:54AM 35.0461 -83.2803 238° Southwest 150 173 11,900  Level Atlanta Center
10:55AM 35.0236 -83.3286 240° Southwest 150 173 11,900  Level Atlanta Center
10:56AM 35.0050 -83.3617 236° Southwest 150 173 12,000  Climbing Atlanta Center
10:57AM 34.9822 -83.4100 240° Southwest 150 173 11,900 -60 Descending Atlanta Center
10:58AM 34.9617 -83.4533 240° Southwest 156 180 11,900  Level Atlanta Center
10:59AM 34.9367 -83.5042 239° Southwest 163 188 11,900  Level Atlanta Center
11:00AM 34.9161 -83.5475 240° Southwest 163 188 11,900  Level Atlanta Center
11:01AM 34.8994 -83.5856 242° Southwest 153 176 11,900  Level Atlanta Center
11:02AM 34.8767 -83.6211 232° Southwest 148 170 11,900  Level Atlanta Center
11:03AM 34.8561 -83.6667 241° Southwest 148 170 11,900  Level Atlanta Center
11:04AM 34.8331 -83.7122 238° Southwest 148 170 11,900  Level Atlanta Center
11:05AM 34.8125 -83.7528 238° Southwest 148 170 11,900  Level Atlanta Center
11:06AM 34.7917 -83.7986 241° Southwest 148 170 11,900  Level Atlanta Center
11:07AM 34.7708 -83.8389 238° Southwest 148 170 11,900  Level Atlanta Center
11:08AM 34.7500 -83.8794 238° Southwest 148 170 11,900  Level Atlanta Center
11:09AM 34.7314 -83.9275 245° Southwest 155 178 11,900  Level Atlanta Center
11:10AM 34.7083 -83.9706 237° Southwest 155 178 11,900  Level Atlanta Center
11:11AM 34.6875 -84.0136 240° Southwest 155 178 11,900  Level Atlanta Center
11:12AM 34.6667 -84.0564 239° Southwest 155 178 11,900  Level Atlanta Center
11:13AM 34.6458 -84.0969 238° Southwest 150 173 11,900  Level Atlanta Center
11:14AM 34.6250 -84.1347 236° Southwest 150 173 11,900  Level Atlanta Center
11:15AM 34.6019 -84.1825 240° Southwest 155 178 11,900  Level Atlanta Center
11:16AM 34.5789 -84.2256 237° Southwest 155 178 11,900  Level Atlanta Center
11:17AM 34.5558 -84.2708 238° Southwest 160 184 11,900  Level Atlanta Center
11:18AM 34.5350 -84.3161 241° Southwest 160 184 11,900  Level Atlanta Center
11:19AM 34.5119 -84.3589 237° Southwest 165 190 11,900  Level Atlanta Center
11:20AM 34.4886 -84.4067 239° Southwest 165 190 11,900  Level Atlanta Center
11:21AM 34.4656 -84.4544 240° Southwest 165 190 11,900  Level Atlanta Center
11:22AM 34.4403 -84.5022 237° Southwest 165 190 11,900  Level Atlanta Center
11:23AM 34.4172 -84.5425 235° Southwest 165 190 11,900  Level Atlanta Center
11:24AM 34.3942 -84.5875 238° Southwest 165 190 11,900  Level Atlanta Center
11:25AM 34.3731 -84.6328 241° Southwest 160 184 12,000  Climbing Atlanta Center
11:26AM 34.3500 -84.6778 238° Southwest 165 190 11,900 -60 Descending Atlanta Center
11:27AM 34.3247 -84.7203 234° Southwest 165 190 11,900  Level Atlanta Center
11:28AM 34.3014 -84.7656 238° Southwest 165 190 11,900  Level Atlanta Center
11:29AM 34.2822 -84.8106 243° Southwest 165 190 11,900  Level Atlanta Center
11:30AM 34.2592 -84.8531 237° Southwest 160 184 11,900  Level Atlanta Center
11:31AM 34.2339 -84.8956 234° Southwest 160 184 11,900  Level Atlanta Center
11:32AM 34.2147 -84.9381 241° Southwest 155 178 11,900  Level Atlanta Center
11:33AM 34.1936 -84.9781 237° Southwest 155 178 11,900  Level Atlanta Center
11:34AM 34.1703 -85.0231 238° Southwest 155 178 11,900  Level Atlanta Center
11:35AM 34.1489 -85.0656 239° Southwest 160 184 11,900  Level Atlanta Center
11:36AM 34.1256 -85.1078 236° Southwest 160 184 11,900  Level Atlanta Center
11:37AM 34.1044 -85.1528 240° Southwest 160 184 11,900  Level Atlanta Center
11:38AM 34.0811 -85.1950 236° Southwest 160 184 11,900  Level Atlanta Center
11:39AM 34.0597 -85.2400 240° Southwest 160 184 11,900  Level Atlanta Center
11:40AM 34.0364 -85.2822 236° Southwest 165 190 11,900  Level Atlanta Center
11:41AM 34.0047 -85.3217 226° Southwest 159 183 11,900  Level Atlanta Center
11:42AM 33.9731 -85.3614 226° Southwest 159 183 11,900  Level Atlanta Center
11:43AM 33.9433 -85.3961 224° Southwest 159 183 11,900  Level Atlanta Center
11:44AM 33.9158 -85.4356 230° Southwest 159 183 11,900  Level Atlanta Center
11:45AM 33.8903 -85.4778 234° Southwest 159 183 11,900  Level Atlanta Center
11:46AM 33.8564 -85.5147 222° Southwest 164 189 11,900  Level Atlanta Center
11:47AM 33.8308 -85.5542 232° Southwest 164 189 11,900  Level Atlanta Center
11:48AM 33.7969 -85.5911 222° Southwest 159 183 11,900  Level Atlanta Center
11:49AM 33.7714 -85.6306 232° Southwest 159 183 11,900  Level Atlanta Center
11:50AM 33.7397 -85.6675 224° Southwest 164 189 12,000  Climbing Atlanta Center
11:51AM 33.7119 -85.7044 228° Southwest 164 189 12,000 -60 Level Atlanta Center
11:52AM 33.6803 -85.7439 226° Southwest 164 189 11,900 -60 Descending Atlanta Center
11:53AM 33.6525 -85.7831 230° Southwest 164 189 11,900  Level Atlanta Center
11:54AM 33.6186 -85.8200 222° Southwest 159 183 12,000 60 Climbing Atlanta Center
11:55AM 33.5889 -85.8567 226° Southwest 159 183 12,100  Climbing Atlanta Center
11:56AM 33.5631 -85.9061 238° Southwest 159 183 12,000 -60 Descending Atlanta Center
11:57AM 33.5394 -85.9503 237° Southwest 159 183 12,000  Level Atlanta Center
11:58AM 33.5200 -85.9947 242° Southwest 153 176 12,000  Level Atlanta Center
11:59AM 33.4983 -86.0392 240° Southwest 153 176 12,000  Level Atlanta Center
12:00PM 33.4747 -86.0786 234° Southwest 158 182 12,000  Level Atlanta Center
12:01PM 33.4531 -86.1228 240° Southwest 163 188 12,000  Level Atlanta Center
12:02PM 33.4294 -86.1669 237° Southwest 163 188 12,000  Level Atlanta Center
12:03PM 33.4078 -86.2139 241° Southwest 163 188 12,000  Level Atlanta Center
12:04PM 33.3861 -86.2581 240° Southwest 163 188 12,000  Level Atlanta Center
12:05PM 33.3603 -86.2997 233° Southwest 163 188 12,100  Climbing Atlanta Center
12:06PM 33.3322 -86.3411 231° Southwest 163 188 12,100 -60 Level Atlanta Center
12:07PM 33.3044 -86.3803 230° Southwest 163 188 12,000 -60 Descending Atlanta Center
12:08PM 33.2744 -86.4192 227° Southwest 163 188 12,000  Level Atlanta Center
12:09PM 33.2467 -86.4581 230° Southwest 163 188 12,100  Climbing Atlanta Center
12:10PM 33.2186 -86.4994 231° Southwest 163 188 12,100  Level Atlanta Center
12:11PM 33.1886 -86.5408 229° Southwest 163 188 12,100 -60 Level Atlanta Center
12:12PM 33.1586 -86.5822 229° Southwest 163 188 12,000  Descending Atlanta Center
12:13PM 33.1283 -86.6233 229° Southwest 163 188 12,100  Climbing Atlanta Center
12:14PM 33.0983 -86.6597 225° Southwest 158 182 12,100 -60 Level Atlanta Center
12:15PM 33.0664 -86.6986 226° Southwest 158 182 12,000 -60 Descending Atlanta Center
12:16PM 33.0364 -86.7347 225° Southwest 158 182 12,000  Level Atlanta Center
12:17PM 33.0042 -86.7708 223° Southwest 158 182 12,100  Climbing Atlanta Center
12:18PM 32.9700 -86.8019 217° Southwest 158 182 12,000 -60 Descending Atlanta Center
12:19PM 32.9358 -86.8406 223° Southwest 158 182 12,000  Level Atlanta Center
12:20PM 32.9058 -86.8742 223° Southwest 163 188 12,000  Level Atlanta Center
12:21PM 32.8819 -86.9156 236° Southwest 158 182 12,000  Level Atlanta Center
12:22PM 32.8581 -86.9567 235° Southwest 158 182 12,000  Level Atlanta Center
12:23PM 32.8319 -87.0003 235° Southwest 163 188 12,100  Climbing Atlanta Center
12:24PM 32.8058 -87.0417 233° Southwest 163 188 12,000  Descending Atlanta Center
12:25PM 32.7797 -87.0875 236° Southwest 163 188 12,100  Climbing Atlanta Center
12:26PM 32.7597 -87.1339 243° Southwest 161 185 12,100 -60 Level Atlanta Center
12:27PM 32.7378 -87.1800 241° Southwest 161 185 12,000  Descending Atlanta Center
12:28PM 32.7158 -87.2236 239° Southwest 166 191 12,100  Climbing Atlanta Center
12:29PM 32.6958 -87.2672 241° Southwest 166 191 12,000 -60 Descending Atlanta Center
12:30PM 32.6717 -87.3133 238° Southwest 166 191 12,000  Level Atlanta Center
12:31PM 32.6475 -87.3592 238° Southwest 166 191 12,000  Level Atlanta Center
12:32PM 32.6233 -87.4028 237° Southwest 166 191 12,000  Level Atlanta Center
12:33PM 32.6033 -87.4489 243° Southwest 166 191 12,100  Climbing Atlanta Center
12:34PM 32.5833 -87.4925 241° Southwest 160 184 12,100 -60 Level Atlanta Center
12:35PM 32.5569 -87.5358 234° Southwest 160 184 12,000 -60 Descending Atlanta Center
12:37PM 32.5174 -87.6151 239° Southwest  Level FlightAware Approximate
12:44PM 32.3570 -87.9061 241° Southwest  Level FlightAware Approximate
12:45PM 32.3366 -87.9495 241° Southwest  Level FlightAware Approximate
12:45PM 32.3122 -88.0372 239° Southwest 154 177 12,000  Level Atlanta Center
12:46PM 32.3162 -87.9929 241° Southwest  Level FlightAware Approximate
12:46PM 32.2903 -88.0731 234° Southwest 196 226 12,000  Level Atlanta Center
12:47PM 32.2958 -88.0363 241° Southwest  Level FlightAware Approximate
12:47PM 32.2722 -88.1142 243° Southwest 168 193 12,000  Level Atlanta Center
12:48PM 32.2753 -88.0796 241° Southwest  Level FlightAware Approximate
12:48PM 32.2519 -88.1575 241° Southwest 152 175 12,000  Level Atlanta Center
12:49PM 32.2549 -88.1230 241° Southwest  Level FlightAware Approximate
12:49PM 32.2394 -88.1811 238° Southwest 153 176 12,000  Level Memphis Center
12:50PM 32.2338 -88.1659 239° Southwest  Level FlightAware Approximate
12:50PM 32.2172 -88.2186 235° Southwest 142 163 12,000  Level Memphis Center
12:51PM 32.2124 -88.2086 239° Southwest  Level FlightAware Approximate
12:51PM 32.1972 -88.2658 243° Southwest 142 163 12,000  Level Memphis Center
12:52PM 32.1747 -88.3081 238° Southwest 147 169 12,000  Level Memphis Center
12:53PM 32.1525 -88.3528 240° Southwest 152 175 12,000  Level Memphis Center
12:54PM 32.1303 -88.3972 239° Southwest 160 184 12,000  Level Memphis Center
12:55PM 32.1061 -88.4419 237° Southwest 160 184 12,000  Level Memphis Center
12:56PM 32.0839 -88.4892 241° Southwest 165 190 12,000  Level Memphis Center
12:57PM 32.0614 -88.5311 238° Southwest 165 190 12,000  Level Memphis Center
12:58PM 32.0392 -88.5758 240° Southwest 159 183 12,000  Level Memphis Center
12:59PM 32.0167 -88.6178 238° Southwest 164 189 12,100  Climbing Memphis Center
01:01PM 31.9756 -88.6944 238° Southwest 161 185 12,000 -60 Descending Houston Center
01:02PM 31.9519 -88.7386 238° Southwest 160 184 12,000  Level Houston Center
01:03PM 31.9286 -88.7828 238° Southwest 160 184 12,100  Climbing Houston Center
01:04PM 31.9017 -88.8375 240° Southwest 161 185 12,100 -60 Level Houston Center
01:05PM 31.8778 -88.8825 238° Southwest 162 186 12,000  Descending Houston Center
01:06PM 31.8542 -88.9258 237° Southwest 159 183 12,100  Climbing Houston Center
01:07PM 31.8311 -88.9703 239° Southwest 160 184 12,100  Level Houston Center
01:08PM 31.8072 -89.0142 237° Southwest 160 184 12,100 -60 Level Houston Center
01:09PM 31.7792 -89.0681 239° Southwest 161 185 12,000 -60 Descending Houston Center
01:10PM 31.7567 -89.1136 240° Southwest 161 185 12,000  Level Houston Center
01:11PM 31.7328 -89.1586 238° Southwest 162 186 12,000  Level Houston Center
01:12PM 31.7081 -89.2031 237° Southwest 163 188 12,000 -60 Level Houston Center
01:13PM 31.6842 -89.2511 240° Southwest 168 193 11,900 -60 Descending Houston Center
01:14PM 31.6600 -89.2983 239° Southwest 169 194 11,900  Level Houston Center
01:15PM 31.6306 -89.3522 237° Southwest 165 190 11,900  Level Houston Center
01:16PM 31.6058 -89.3978 238° Southwest 166 191 11,900  Level Houston Center
01:17PM 31.5839 -89.4442 241° Southwest 164 189 11,900  Level Houston Center
01:19PM 31.5594 -89.4889 237° Southwest 163 188 11,900  Level Houston Center
01:20PM 31.5325 -89.5414 239° Southwest 163 188 11,900  Level Houston Center
01:21PM 31.5081 -89.5869 238° Southwest 164 189 11,900  Level Houston Center
01:22PM 31.4842 -89.6317 238° Southwest 163 188 11,900  Level Houston Center
01:23PM 31.4606 -89.6772 239° Southwest 163 188 11,900  Level Houston Center
01:24PM 31.4364 -89.7222 238° Southwest 163 188 11,900  Level Houston Center
01:25PM 31.4078 -89.7750 238° Southwest 161 185 11,900  Level Houston Center
01:26PM 31.3842 -89.8228 240° Southwest 167 192 11,900  Level Houston Center
01:27PM 31.3592 -89.8689 238° Southwest 168 193 11,900  Level Houston Center
01:28PM 31.3344 -89.9144 238° Southwest 167 192 11,900  Level Houston Center
01:29PM 31.3094 -89.9628 239° Southwest 172 198 11,900  Level Houston Center
01:30PM 31.2850 -90.0106 239° Southwest 173 199 11,900  Level Houston Center
01:31PM 31.2542 -90.0669 237° Southwest 172 198 11,900  Level Houston Center
01:32PM 31.2283 -90.1136 237° Southwest 171 197 11,900  Level Houston Center
01:33PM 31.2047 -90.1606 240° Southwest 170 196 11,900  Level Houston Center
01:34PM 31.1803 -90.2056 238° Southwest 165 190 11,900  Level Houston Center
01:35PM 31.1564 -90.2514 239° Southwest 166 191 11,900  Level Houston Center
01:36PM 31.1306 -90.2964 236° Southwest 168 193 11,900  Level Houston Center
01:37PM 31.1019 -90.3514 239° Southwest 165 190 11,900  Level Houston Center
01:38PM 31.0772 -90.3972 238° Southwest 166 191 11,900  Level Houston Center
01:39PM 31.0531 -90.4444 239° Southwest 168 193 11,900  Level Houston Center
01:40PM 31.0283 -90.4889 237° Southwest 165 190 11,900  Level Houston Center
01:41PM 31.0039 -90.5358 239° Southwest 167 192 11,900  Level Houston Center
01:42PM 30.9725 -90.5925 237° Southwest 172 198 11,900  Level Houston Center
01:43PM 30.9492 -90.6378 239° Southwest 165 190 11,900  Level Houston Center
01:44PM 30.9217 -90.6861 236° Southwest 176 203 11,900  Level Houston Center
01:45PM 30.8964 -90.7331 238° Southwest 172 198 11,900  Level Houston Center
01:46PM 30.8706 -90.7819 238° Southwest 175 201 11,900  Level Houston Center
01:48PM 30.8397 -90.8400 238° Southwest 176 203 11,900  Level Houston Center
01:49PM 30.8131 -90.8869 237° Southwest 175 201 11,900  Level Houston Center
01:50PM 30.7894 -90.9331 239° Southwest 170 196 11,900  Level Houston Center
01:51PM 30.7633 -90.9803 237° Southwest 172 198 11,900  Level Houston Center
01:52PM 30.7386 -91.0269 238° Southwest 170 196 11,900  Level Houston Center
01:53PM 30.7114 -91.0733 236° Southwest 172 198 11,900  Level Houston Center
01:54PM 30.6811 -91.1289 238° Southwest 171 197 11,900 -180 Level Houston Center
01:55PM 30.6572 -91.1778 240° Southwest 173 199 11,600 -360 Descending Houston Center
01:56PM 30.6281 -91.2283 236° Southwest 183 211 11,200 -480 Descending Houston Center
01:57PM 30.5986 -91.2803 237° Southwest 190 219 10,700 -480 Descending Houston Center
01:58PM 30.5694 -91.3342 238° Southwest 194 223 10,300 -600 Descending Houston Center
01:59PM 30.5322 -91.3986 236° Southwest 198 228 9,500 -720 Descending Houston Center
02:00PM 30.5008 -91.4525 236° Southwest 197 227 8,900 -600 Descending Houston Center
02:01PM 30.4703 -91.5067 237° Southwest 199 229 8,300 -660 Descending Houston Center
02:02PM 30.4431 -91.5608 240° Southwest 198 228 7,600 -720 Descending Houston Center
02:03PM 30.4136 -91.6147 238° Southwest 197 227 6,900 -660 Descending Houston Center
02:04PM 30.3825 -91.6672 236° Southwest 198 228 6,300 -720 Descending Houston Center
02:05PM 30.3461 -91.7333 237° Southwest 198 228 5,500 -720 Descending Houston Center
02:06PM 30.3153 -91.7878 237° Southwest 201 231 4,900 -780 Descending Houston Center
02:07PM 30.2858 -91.8414 238° Southwest 199 229 4,000 -540 Descending Houston Center
02:08PM 30.2617 -91.8900 240° Southwest 190 219 3,800 -240 Descending Houston Center
02:10PM 30.2204 -91.9323 245° Southwest  Level FlightAware Approximate
02:17PM 30.2000 -91.9833 245° Southwest  Level FlightAware Approximate
02:18PM 30.2050 -91.9877 245° Southwest  Level Estimated
02:19PM 30.2000 -91.9833 245° Southwest  Level FlightAware Approximate
02:20PM 30.2050 -91.9877 245° Southwest  Level Estimated
02:21PM 30.2000 -91.9833 245° Southwest  Level FlightAware Approximate